Historyczne dane pomiarowe

Dodano dane terminowe – wersja testowa.

Dane z okresu 1951-2019

Wersja bazy: 1.34 [2019-03-16, lista zmian], aktualizacja planowana na 2019-04-15

Dane meteo z obszaru Polski uzyskane na podstawie danych udostępnionych przez Instytut Meteorologii i Gospodarki Wodnej – Państwowy Instytut Badawczy.

 

Wybierz Datę:    

       

TemperaturaWilgotnośćWiatrCiśnienieOpadyŚniegCzas trwania zjawisk
 Stacja t tx tn tng RH VA  wxwx mslp ppp RRR   cm mm wxwxwxwxwxwxwx
2001-01-14 -2.0 -0.8 -4.3 -9.6 90.5- 6.3 0.3---- 0.0------------
2001-01-15 -1.6 -0.7 -2.2 -5.2 87.3- 8.0 0.7---- 0.0------------
2001-01-16 -3.7 -1.3 -5.1 -6.8 88.5- 7.3 1.7---- 0.0------------
2001-01-17 -3.2 -0.2 -6.1 -5.7 86.3- 6.7 1.7---- 0.0------------
2001-01-18 -1.8 1.8 -5.2 -4.6 85.0- 3.3 1.0---- 0.0------------
2001-01-19 -4.1 1.8 -7.9 -8.1 88.0- 2.7 0.7---- 0.0------------
2001-01-20 -4.0 1.6 -8.2 -9.7 92.0- 3.3 0.0---- 0.0------------
2001-01-21 -2.5 1.7 -8.4 -7.7 94.5- 6.0 0.0---- 0.0------------
2001-01-22 -3.1 0.4 -7.1 -9.6 88.3- 8.0 5.0---- 0.6------------
2001-01-23 -1.2 2.5 -4.7 -7.8 90.8- 8.0 1.0---- 0.5------------
2001-01-24 0.4 5.2 -3.7 -5.6 86.3- 6.7 0.7---- 3.0------------
2001-01-25 2.4 8.4 -0.7 -3.6 87.8- 5.0 0.7---- 0.0------------
2001-01-26 2.4 6.8 -2.2 -4.3 83.3- 6.0 2.0---- 0.0------------
2001-01-27 0.3 6.1 -4.3 -6.8 83.5- 4.0 1.0---- 0.0------------
2001-01-28 1.9 6.0 -0.5 -5.7 80.0- 1.0 2.0---- 0.0------------
2001-01-29 0.3 4.5 -3.7 -7.0 83.5- 7.7 2.0---- 0.0------------
2001-01-30 -0.4 2.1 -2.2 -5.2 91.8- 8.0 0.3---- 0.5------------
2001-01-31 -0.3 0.8 -0.9 -0.8 95.5- 8.0 1.3---- 1.0------------
2001-02-01 -2.4 0.9 -5.1 -6.5 86.0- 6.3 2.0---- 1.0------------
2001-02-02 -3.5 -0.9 -5.5-10.8 82.0- 8.0 1.7---- 2.9-- 4---------
2001-02-03 -8.3 -3.1-14.5-20.8 83.3- 7.7 0.0---- 1.4-- 5---------
2001-02-04 -4.4 -2.9 -6.0 -6.7 89.8- 7.3 0.7---- 0.4-- 8---------
2001-02-05 1.7 7.2 -4.2 -3.6 85.5- 8.0 1.7---- 0.0-- 9---------
2001-02-06 6.5 11.4 3.5 1.6 82.3- 6.7 4.3---- 0.0------------
2001-02-07 7.0 14.3 2.8 -1.0 76.8- 6.0 1.7---- 0.0------------
2001-02-08 4.8 13.0 0.3 -2.1 87.5- 7.3 0.7---- 0.0------------
2001-02-09 5.2 13.0 -1.2 -3.6 80.0- 5.0 2.3---- 0.0------------
2001-02-10 3.6 7.2 2.1 1.2 86.5- 7.3 1.7---- 0.0------------
2001-02-11 -0.5 7.5 -5.4 -8.5 80.5- 0.0 1.3---- 0.0------------
2001-02-12 6.0 15.7 -0.6 -2.9 86.0- 3.3 0.3---- 0.3------------
192.9 ms

 

Źródłem pochodzenia danych jest Instytut Meteorologii i Gospodarki Wodnej – Państwowy Instytut Badawczy. Dane Instytutu Meteorologii i Gospodarki Wodnej – Państwowego Instytutu Badawczego zostały przetworzone.

Dane źródłowe można odnaleźć na stronie https://dane.imgw.pl